Time;durP1;ratioP1;P1;durP2;ratioP2;P2;SDS_P1;SDS_P2;PMS_P1;PMS_P2;Temp;Humidity;BMP_temperature;BMP_pressure;BME280_temperature;BME280_humidity;BME280_pressure;Samples;Min_cycle;Max_cycle;Signal;HPM_P1;HPM_P2
2022/04/07 00:01:08;;;;;;;6.05;2.05;;;11.90;99.90;;;;;;5012218;28;20029;-65
2022/04/07 00:03:34;;;;;;;2.85;1.90;;;11.80;99.90;;;;;;5013257;28;20034;-65
2022/04/07 00:06:00;;;;;;;4.68;1.75;;;11.80;99.90;;;;;;5012016;28;20548;-65
2022/04/07 00:08:26;;;;;;;4.45;2.00;;;11.70;99.90;;;;;;5011925;28;20042;-65
2022/04/07 00:10:52;;;;;;;5.45;2.03;;;11.70;99.90;;;;;;5013358;28;20056;-65
2022/04/07 00:13:17;;;;;;;6.22;1.77;;;11.80;99.90;;;;;;5012433;28;20022;-66
2022/04/07 00:15:43;;;;;;;4.60;2.10;;;11.70;99.90;;;;;;5012123;28;20025;-65
2022/04/07 00:18:09;;;;;;;5.10;2.30;;;11.80;99.90;;;;;;5012316;28;20022;-65
2022/04/07 00:20:36;;;;;;;3.60;1.95;;;11.70;99.90;;;;;;5013022;28;20026;-65
2022/04/07 00:23:01;;;;;;;3.72;2.10;;;11.60;99.90;;;;;;5012167;28;20061;-65
2022/04/07 00:25:27;;;;;;;3.17;2.03;;;11.60;99.90;;;;;;5013075;28;20084;-65
2022/04/07 00:27:53;;;;;;;4.53;2.05;;;11.70;99.90;;;;;;5013350;28;20037;-65
2022/04/07 00:30:20;;;;;;;7.00;2.10;;;11.80;99.90;;;;;;5013026;28;20026;-64
2022/04/07 00:32:47;;;;;;;7.90;2.35;;;11.70;99.90;;;;;;5013173;28;20492;-64
2022/04/07 00:35:14;;;;;;;2.70;1.88;;;11.60;99.90;;;;;;5017493;28;20022;-66
2022/04/07 00:37:40;;;;;;;3.28;1.90;;;11.60;99.90;;;;;;5016955;28;20026;-66
2022/04/07 00:40:07;;;;;;;3.65;1.90;;;11.60;99.90;;;;;;5015716;28;20018;-66
2022/04/07 00:42:33;;;;;;;4.10;1.70;;;11.50;99.90;;;;;;5016829;28;20052;-66
2022/04/07 00:45:04;;;;;;;2.35;1.63;;;11.50;99.90;;;;;;5017186;28;20037;-66
2022/04/07 00:47:29;;;;;;;3.03;1.80;;;11.40;99.90;;;;;;5016872;28;20027;-66
2022/04/07 00:49:55;;;;;;;5.90;1.90;;;11.40;99.90;;;;;;5016824;28;20041;-66
2022/04/07 00:52:21;;;;;;;3.35;1.60;;;11.30;99.90;;;;;;5015632;28;20433;-66
2022/04/07 00:54:48;;;;;;;2.35;1.60;;;11.40;99.90;;;;;;5015612;28;20116;-66
2022/04/07 00:57:14;;;;;;;2.63;1.40;;;11.30;99.90;;;;;;5015311;28;20018;-65
2022/04/07 00:59:41;;;;;;;2.45;1.55;;;11.20;99.90;;;;;;5015990;28;20122;-65
2022/04/07 01:02:09;;;;;;;4.53;1.80;;;11.20;99.90;;;;;;5015854;28;20054;-65
2022/04/07 01:04:34;;;;;;;3.95;1.60;;;11.20;99.90;;;;;;5015088;28;20041;-65
2022/04/07 01:07:00;;;;;;;3.83;1.80;;;11.10;99.90;;;;;;5016249;28;20060;-65
2022/04/07 01:09:26;;;;;;;1.65;1.55;;;11.10;99.90;;;;;;5015698;28;20026;-65
2022/04/07 01:12:01;;;;;;;4.90;1.73;;;11.00;99.90;;;;;;5015298;28;20078;-65
2022/04/07 01:14:27;;;;;;;2.70;1.50;;;11.00;99.90;;;;;;5015747;28;20026;-65
2022/04/07 01:16:52;;;;;;;4.32;1.90;;;11.00;99.90;;;;;;5015079;28;20025;-65
2022/04/07 01:19:18;;;;;;;5.18;1.75;;;11.00;99.90;;;;;;5015169;28;20025;-65
2022/04/07 01:21:45;;;;;;;2.65;1.60;;;11.00;99.90;;;;;;5014926;28;20076;-65
2022/04/07 01:24:11;;;;;;;4.97;1.52;;;11.10;99.90;;;;;;5015048;28;20033;-65
2022/04/07 01:26:43;;;;;;;2.50;1.80;;;11.10;99.90;;;;;;5014684;28;20117;-65
2022/04/07 01:29:19;;;;;;;2.03;1.20;;;11.00;99.90;;;;;;5015955;28;20028;-65
2022/04/07 01:31:44;;;;;;;3.28;1.67;;;11.00;99.90;;;;;;5015368;28;20030;-65
2022/04/07 01:34:13;;;;;;;2.67;1.40;;;11.10;99.90;;;;;;5014621;28;20030;-65
2022/04/07 01:36:43;;;;;;;5.43;1.80;;;11.10;99.90;;;;;;5014955;28;20026;-65
2022/04/07 01:39:09;;;;;;;2.20;1.48;;;11.20;99.90;;;;;;5016046;28;20022;-65
2022/04/07 01:41:38;;;;;;;5.72;1.70;;;11.20;99.90;;;;;;5015204;28;20022;-65
2022/04/07 01:44:04;;;;;;;4.45;1.33;;;11.20;99.90;;;;;;5014196;28;20022;-65
2022/04/07 01:46:31;;;;;;;1.05;0.90;;;11.20;99.90;;;;;;5015492;28;20038;-65
2022/04/07 01:48:59;;;;;;;1.80;1.10;;;11.10;99.90;;;;;;5015754;28;20033;-65
2022/04/07 01:51:26;;;;;;;7.65;1.25;;;11.20;99.90;;;;;;5015345;28;20030;-65
2022/04/07 01:53:53;;;;;;;2.80;1.25;;;11.30;99.90;;;;;;5015968;28;20022;-65
2022/04/07 01:56:20;;;;;;;2.30;1.52;;;11.40;99.90;;;;;;5015874;28;20033;-65
2022/04/07 01:58:47;;;;;;;3.13;2.00;;;11.60;99.90;;;;;;5015700;28;20106;-66
2022/04/07 02:01:14;;;;;;;2.28;1.48;;;11.60;99.90;;;;;;5015543;28;20104;-66
2022/04/07 02:03:40;;;;;;;1.60;1.35;;;11.60;99.90;;;;;;5015690;28;20124;-66
2022/04/07 02:06:17;;;;;;;1.90;1.42;;;11.60;99.90;;;;;;5014208;28;20033;-66
2022/04/07 02:08:43;;;;;;;1.83;1.42;;;11.50;99.90;;;;;;5013939;28;20030;-66
2022/04/07 02:11:10;;;;;;;3.55;1.63;;;11.60;99.90;;;;;;5015517;28;20408;-66
2022/04/07 02:13:38;;;;;;;3.35;1.50;;;11.70;99.90;;;;;;5014784;28;20076;-66
2022/04/07 02:16:07;;;;;;;2.40;1.27;;;11.80;99.90;;;;;;5013954;28;20112;-66
2022/04/07 02:18:33;;;;;;;6.88;1.58;;;11.90;99.90;;;;;;5015637;28;20504;-66
2022/04/07 02:20:58;;;;;;;2.50;1.10;;;11.90;99.90;;;;;;5014156;28;20029;-66
2022/04/07 02:23:26;;;;;;;2.53;1.83;;;11.90;99.90;;;;;;5013901;28;20025;-66
2022/04/07 02:25:51;;;;;;;2.55;1.10;;;11.90;99.90;;;;;;5013858;28;20030;-66
2022/04/07 02:28:18;;;;;;;2.20;1.40;;;11.70;99.90;;;;;;5015079;28;20106;-66
2022/04/07 02:30:45;;;;;;;3.03;1.45;;;11.70;99.90;;;;;;5013844;28;20037;-66
2022/04/07 02:33:11;;;;;;;3.50;1.30;;;11.70;99.90;;;;;;5014982;28;20536;-66
2022/04/07 02:35:36;;;;;;;2.13;1.00;;;11.70;99.90;;;;;;5013786;28;20094;-66
2022/04/07 02:38:02;;;;;;;1.58;1.33;;;11.60;99.90;;;;;;5013821;28;20022;-66
2022/04/07 02:40:27;;;;;;;2.28;1.35;;;11.60;99.90;;;;;;5013659;28;20025;-66
2022/04/07 02:42:53;;;;;;;1.60;1.30;;;11.70;99.90;;;;;;5014856;28;20036;-66
2022/04/07 02:45:19;;;;;;;3.17;1.23;;;11.70;99.90;;;;;;5015403;28;20030;-66
2022/04/07 02:47:44;;;;;;;3.97;1.25;;;11.60;99.90;;;;;;5013879;28;20492;-66
2022/04/07 02:50:10;;;;;;;3.17;1.95;;;11.60;99.90;;;;;;5013491;28;20022;-66
2022/04/07 02:52:36;;;;;;;1.63;1.13;;;11.60;99.90;;;;;;5014417;28;20026;-66
2022/04/07 02:55:03;;;;;;;1.10;0.93;;;11.60;99.90;;;;;;5013699;28;20053;-66
2022/04/07 02:57:31;;;;;;;1.73;1.00;;;11.50;99.90;;;;;;5014303;28;20072;-66
2022/04/07 03:00:00;;;;;;;0.80;0.80;;;11.50;99.90;;;;;;5013310;28;20022;-66
2022/04/07 03:02:27;;;;;;;1.88;0.95;;;11.50;99.90;;;;;;5014608;28;20069;-66
2022/04/07 03:04:53;;;;;;;1.63;1.27;;;11.60;99.90;;;;;;5013650;28;20378;-66
2022/04/07 03:07:19;;;;;;;3.08;1.23;;;11.50;99.90;;;;;;5013924;28;20052;-66
2022/04/07 03:09:45;;;;;;;1.23;0.85;;;11.50;99.90;;;;;;5014467;28;20022;-66
2022/04/07 03:12:13;;;;;;;2.30;1.55;;;11.50;99.90;;;;;;5009884;28;20080;-61
2022/04/07 03:14:39;;;;;;;1.63;1.20;;;11.50;99.90;;;;;;5010391;28;20122;-61
2022/04/07 03:17:05;;;;;;;1.45;0.90;;;11.40;99.90;;;;;;4994842;28;20027;-62
2022/04/07 03:19:31;;;;;;;3.00;1.05;;;11.40;99.90;;;;;;4993208;28;20030;-62
2022/04/07 03:21:57;;;;;;;4.03;1.45;;;11.30;99.90;;;;;;5009679;28;20032;-61
2022/04/07 03:24:24;;;;;;;0.95;0.95;;;11.20;99.90;;;;;;5009776;28;20096;-60
2022/04/07 03:26:50;;;;;;;1.85;1.02;;;11.20;99.90;;;;;;4993154;28;20033;-60
2022/04/07 03:29:17;;;;;;;1.38;0.82;;;11.20;99.90;;;;;;5009436;28;20030;-61
2022/04/07 03:31:42;;;;;;;1.45;0.90;;;11.20;99.90;;;;;;5009649;28;20034;-59
2022/04/07 03:34:08;;;;;;;1.15;0.90;;;11.20;99.90;;;;;;5009627;28;20034;-60
2022/04/07 03:36:34;;;;;;;1.10;1.00;;;11.20;99.90;;;;;;4994324;28;20093;-61
2022/04/07 03:38:59;;;;;;;4.20;1.52;;;11.20;99.90;;;;;;4993102;28;20023;-61
2022/04/07 03:41:28;;;;;;;3.45;1.20;;;11.20;99.90;;;;;;5009519;28;20029;-60
2022/04/07 03:43:54;;;;;;;4.53;2.47;;;11.20;99.90;;;;;;5009310;28;20027;-61
2022/04/07 03:46:21;;;;;;;2.15;1.77;;;11.20;99.90;;;;;;5009261;28;20037;-61
2022/04/07 03:48:49;;;;;;;2.70;1.42;;;11.20;99.90;;;;;;4992635;28;20491;-61
2022/04/07 03:51:14;;;;;;;2.22;1.08;;;11.20;99.90;;;;;;5008684;28;20026;-60
2022/04/07 03:53:40;;;;;;;1.55;1.17;;;11.20;99.90;;;;;;5008800;28;20057;-61
2022/04/07 03:56:06;;;;;;;2.35;1.25;;;11.20;99.90;;;;;;4993884;28;20073;-61
2022/04/07 03:58:31;;;;;;;2.33;1.00;;;11.10;99.90;;;;;;4993815;28;20030;-60
2022/04/07 04:00:58;;;;;;;2.00;1.20;;;11.10;99.90;;;;;;4994044;28;20093;-61
2022/04/07 04:03:24;;;;;;;2.05;1.00;;;11.20;99.90;;;;;;5008768;28;20034;-60
2022/04/07 04:05:49;;;;;;;1.58;1.08;;;11.20;99.90;;;;;;5009507;28;20109;-59
2022/04/07 04:08:15;;;;;;;1.65;1.15;;;11.20;99.90;;;;;;4992743;28;20073;-60
2022/04/07 04:10:41;;;;;;;1.33;1.00;;;11.20;99.90;;;;;;5008646;28;20505;-61
2022/04/07 04:13:06;;;;;;;1.73;1.05;;;11.20;99.90;;;;;;5008365;28;20084;-60
2022/04/07 04:15:32;;;;;;;2.00;1.10;;;11.30;99.90;;;;;;5008247;28;20041;-61
2022/04/07 04:17:57;;;;;;;6.85;1.20;;;11.40;99.90;;;;;;5008422;28;20388;-61
2022/04/07 04:20:23;;;;;;;1.08;1.00;;;11.40;99.90;;;;;;5008514;28;20031;-61
2022/04/07 04:22:50;;;;;;;1.63;1.00;;;11.40;99.90;;;;;;4993372;28;20026;-59
2022/04/07 04:25:16;;;;;;;1.75;0.93;;;11.40;99.90;;;;;;5009515;28;20449;-59
2022/04/07 04:27:42;;;;;;;1.45;0.75;;;11.40;99.90;;;;;;5008588;28;20069;-60
2022/04/07 04:30:08;;;;;;;0.80;0.80;;;11.50;99.90;;;;;;4997248;28;20113;-61
2022/04/07 04:32:34;;;;;;;1.50;1.27;;;11.60;99.90;;;;;;4993635;28;20109;-60
2022/04/07 04:34:59;;;;;;;1.65;1.20;;;11.60;99.90;;;;;;4993770;28;20105;-59
2022/04/07 04:37:26;;;;;;;2.90;1.25;;;11.60;99.90;;;;;;4992540;28;20022;-61
2022/04/07 04:39:53;;;;;;;1.60;0.93;;;11.60;99.90;;;;;;4992378;28;20034;-60
2022/04/07 04:42:19;;;;;;;1.17;0.93;;;11.60;99.90;;;;;;4992357;28;20077;-59
2022/04/07 04:44:46;;;;;;;1.70;1.08;;;11.70;99.90;;;;;;4993718;28;20030;-61
2022/04/07 04:47:12;;;;;;;3.35;0.70;;;11.50;99.90;;;;;;4993249;28;20094;-60
2022/04/07 04:49:41;;;;;;;1.30;0.45;;;11.50;99.90;;;;;;4993127;28;20126;-60
2022/04/07 04:52:08;;;;;;;1.73;1.00;;;11.60;99.90;;;;;;4992437;28;20034;-60
2022/04/07 04:54:34;;;;;;;1.38;0.77;;;11.60;99.90;;;;;;4993682;28;20107;-58
2022/04/07 04:56:59;;;;;;;0.57;0.50;;;11.60;99.90;;;;;;4992465;28;20058;-60
2022/04/07 04:59:25;;;;;;;2.80;0.82;;;11.60;99.90;;;;;;4992471;28;20022;-61
2022/04/07 05:01:50;;;;;;;1.70;0.60;;;11.60;99.90;;;;;;4993467;28;20022;-61
2022/04/07 05:04:16;;;;;;;3.55;0.50;;;11.60;99.90;;;;;;4992137;28;20035;-60
2022/04/07 05:06:42;;;;;;;0.80;0.50;;;11.50;99.90;;;;;;4992141;28;20109;-59
2022/04/07 05:09:07;;;;;;;0.68;0.52;;;11.50;99.90;;;;;;4993286;28;20109;-61
2022/04/07 05:11:34;;;;;;;1.20;0.70;;;11.50;99.90;;;;;;4992682;28;20544;-61
2022/04/07 05:14:00;;;;;;;1.02;0.80;;;11.50;99.90;;;;;;4993584;28;20496;-60
2022/04/07 05:16:26;;;;;;;0.50;0.43;;;11.40;99.90;;;;;;4993854;28;20034;-60
2022/04/07 05:18:52;;;;;;;1.67;0.57;;;11.50;99.90;;;;;;4992559;28;20026;-60
2022/04/07 05:21:18;;;;;;;1.20;0.60;;;11.50;99.90;;;;;;4998509;28;20019;-59
2022/04/07 05:23:44;;;;;;;0.60;0.52;;;11.50;99.90;;;;;;4995889;28;20042;-62
2022/04/07 05:26:12;;;;;;;1.02;0.70;;;11.50;99.90;;;;;;4995737;28;20023;-61
2022/04/07 05:28:38;;;;;;;1.38;0.80;;;11.40;99.90;;;;;;4995854;28;20030;-60
2022/04/07 05:31:04;;;;;;;0.68;0.50;;;11.40;99.90;;;;;;4996419;28;20444;-61
2022/04/07 05:33:30;;;;;;;0.70;0.65;;;11.40;99.90;;;;;;4997487;28;20026;-60
2022/04/07 05:35:55;;;;;;;0.93;0.50;;;11.50;99.90;;;;;;4996981;28;20019;-61
2022/04/07 05:38:21;;;;;;;1.23;0.50;;;11.50;99.90;;;;;;4996406;28;20037;-61
2022/04/07 05:40:47;;;;;;;2.97;0.77;;;11.50;99.90;;;;;;4995739;28;20484;-61
2022/04/07 05:43:12;;;;;;;2.00;0.70;;;11.50;99.90;;;;;;4996755;28;20033;-60
2022/04/07 05:45:42;;;;;;;0.50;0.50;;;11.60;99.90;;;;;;4995586;28;20053;-58
2022/04/07 05:48:09;;;;;;;0.63;0.63;;;11.70;99.90;;;;;;4996733;28;20026;-61
2022/04/07 05:50:34;;;;;;;0.75;0.70;;;11.80;99.90;;;;;;4995165;28;20034;-59
2022/04/07 05:53:00;;;;;;;0.82;0.63;;;11.90;99.90;;;;;;4995249;28;20027;-60
2022/04/07 05:55:25;;;;;;;0.98;0.63;;;11.90;99.90;;;;;;4995331;28;20094;-60
2022/04/07 05:57:51;;;;;;;0.63;0.63;;;11.80;99.90;;;;;;4995556;28;20038;-61
2022/04/07 06:00:18;;;;;;;2.15;0.82;;;11.90;99.90;;;;;;4995784;28;20018;-60
2022/04/07 06:02:44;;;;;;;2.88;0.70;;;11.80;99.90;;;;;;5035652;28;20029;-60
2022/04/07 06:05:11;;;;;;;2.58;0.98;;;11.80;99.90;;;;;;5034691;28;20033;-58
2022/04/07 06:07:37;;;;;;;1.80;0.70;;;11.80;99.90;;;;;;5035551;28;20060;-61
2022/04/07 06:10:05;;;;;;;0.50;0.50;;;11.70;99.90;;;;;;5034738;28;20025;-61
2022/04/07 06:12:30;;;;;;;2.20;0.60;;;11.80;99.90;;;;;;5035559;28;20029;-61
2022/04/07 06:14:56;;;;;;;1.40;0.52;;;11.90;99.90;;;;;;5034647;28;20029;-62
2022/04/07 06:17:41;;;;;;;4.43;0.80;;;12.00;99.90;;;;;;5034290;28;20116;-61
2022/04/07 06:20:11;;;;;;;1.77;0.70;;;11.90;99.90;;;;;;5034401;28;20018;-60
2022/04/07 06:22:38;;;;;;;1.80;0.85;;;12.00;99.90;;;;;;5035750;28;20499;-61
2022/04/07 06:25:04;;;;;;;1.10;1.00;;;12.20;99.90;;;;;;5034339;28;20021;-61
2022/04/07 06:27:34;;;;;;;1.58;0.82;;;12.30;99.90;;;;;;5033886;28;20028;-60
2022/04/07 06:30:00;;;;;;;1.10;0.73;;;12.50;99.90;;;;;;5034034;28;20022;-58
2022/04/07 06:32:25;;;;;;;3.13;1.15;;;12.50;99.90;;;;;;5033172;28;20076;-61
2022/04/07 06:34:51;;;;;;;1.00;0.85;;;12.50;99.90;;;;;;5035253;28;20068;-63
2022/04/07 06:37:17;;;;;;;1.13;0.98;;;12.50;99.90;;;;;;5035074;28;20032;-62
2022/04/07 06:39:42;;;;;;;0.88;0.88;;;12.40;99.90;;;;;;5034058;28;20022;-62
2022/04/07 06:42:08;;;;;;;1.67;1.02;;;12.40;99.90;;;;;;5034063;28;20053;-61
2022/04/07 06:44:56;;;;;;;1.73;1.00;;;12.40;99.90;;;;;;5034008;28;20029;-61
2022/04/07 06:47:23;;;;;;;1.70;0.90;;;12.30;99.90;;;;;;5034888;28;20033;-61
2022/04/07 06:49:49;;;;;;;3.45;0.80;;;12.40;99.90;;;;;;5034196;28;20120;-62
2022/04/07 06:52:16;;;;;;;0.73;0.73;;;12.30;99.90;;;;;;5033809;28;20031;-54
2022/04/07 06:54:41;;;;;;;0.93;0.70;;;12.30;99.90;;;;;;5033409;28;20038;-56
2022/04/07 06:57:07;;;;;;;1.10;0.82;;;12.20;99.90;;;;;;5033919;28;20067;-55
2022/04/07 06:59:33;;;;;;;1.80;1.00;;;12.30;99.90;;;;;;5034583;28;20018;-54
2022/04/07 07:01:58;;;;;;;1.30;0.90;;;12.30;99.90;;;;;;5035489;28;20107;-56
2022/04/07 07:04:24;;;;;;;1.98;0.80;;;12.30;99.90;;;;;;5033100;28;20048;-55
2022/04/07 07:06:50;;;;;;;0.80;0.73;;;12.20;99.90;;;;;;5033481;28;20076;-51
2022/04/07 07:09:16;;;;;;;4.00;1.10;;;12.20;99.90;;;;;;5033537;28;20080;-56
2022/04/07 07:11:41;;;;;;;1.33;1.17;;;12.10;99.90;;;;;;5033505;28;20039;-56
2022/04/07 07:14:07;;;;;;;0.60;0.60;;;12.10;99.90;;;;;;5033932;28;20481;-63
2022/04/07 07:16:33;;;;;;;0.60;0.47;;;12.20;99.90;;;;;;5014948;28;20089;-57
2022/04/07 07:18:58;;;;;;;0.70;0.70;;;12.10;99.90;;;;;;5014601;28;20076;-58
2022/04/07 07:21:24;;;;;;;0.73;0.50;;;12.00;99.90;;;;;;5014377;28;20021;-56
2022/04/07 07:23:49;;;;;;;1.02;0.55;;;12.10;99.90;;;;;;5013500;28;20057;-58
2022/04/07 07:26:15;;;;;;;0.95;0.40;;;12.10;99.90;;;;;;5013278;28;20121;-58
2022/04/07 07:28:41;;;;;;;0.73;0.40;;;12.10;99.90;;;;;;5013310;28;20041;-58
2022/04/07 07:31:23;;;;;;;2.60;0.88;;;12.20;99.90;;;;;;5004488;28;20029;-62
2022/04/07 07:33:49;;;;;;;0.82;0.52;;;12.10;99.90;;;;;;4993343;28;20080;-63
2022/04/07 07:36:25;;;;;;;0.73;0.30;;;12.00;99.90;;;;;;4993493;28;20425;-61
2022/04/07 07:38:50;;;;;;;2.88;0.40;;;12.00;99.90;;;;;;4994918;28;20026;-61
2022/04/07 07:41:16;;;;;;;2.28;0.30;;;12.00;99.90;;;;;;4994960;28;20034;-60
2022/04/07 07:43:42;;;;;;;1.80;0.40;;;11.90;99.90;;;;;;4992448;28;20070;-60
2022/04/07 07:46:07;;;;;;;1.77;0.50;;;11.90;99.90;;;;;;4993199;28;20026;-64
2022/04/07 07:48:33;;;;;;;4.88;0.63;;;12.00;99.90;;;;;;4993514;28;20026;-60
2022/04/07 07:50:59;;;;;;;0.20;0.20;;;12.00;99.90;;;;;;4993314;28;20109;-61
2022/04/07 07:53:25;;;;;;;2.08;0.38;;;11.90;99.90;;;;;;4993327;28;20093;-63
2022/04/07 07:55:52;;;;;;;0.32;0.22;;;11.90;99.90;;;;;;4994380;28;20540;-61
2022/04/07 07:58:17;;;;;;;0.93;0.40;;;11.90;99.90;;;;;;4994287;28;20041;-61
2022/04/07 08:00:43;;;;;;;0.95;0.47;;;11.90;99.90;;;;;;4994397;28;20389;-60
2022/04/07 08:03:09;;;;;;;0.45;0.10;;;12.00;99.90;;;;;;4993220;28;20113;-61
2022/04/07 08:05:35;;;;;;;0.10;0.10;;;12.00;99.90;;;;;;4992975;28;20026;-62
2022/04/07 08:08:02;;;;;;;0.73;0.38;;;12.00;99.90;;;;;;4993400;28;20101;-63
2022/04/07 08:10:28;;;;;;;0.50;0.30;;;12.10;99.90;;;;;;5026111;28;20027;-63
2022/04/07 08:12:54;;;;;;;0.75;0.25;;;12.10;99.90;;;;;;5005712;28;20041;-62
2022/04/07 08:15:19;;;;;;;2.22;0.35;;;12.30;99.90;;;;;;5012803;28;20022;-59
2022/04/07 08:17:45;;;;;;;0.10;0.10;;;12.40;99.90;;;;;;5013755;28;20470;-58
2022/04/07 08:20:11;;;;;;;3.10;0.30;;;12.40;99.90;;;;;;5013800;28;20018;-57
2022/04/07 08:22:37;;;;;;;0.40;0.17;;;12.40;99.90;;;;;;5012655;28;20021;-55
2022/04/07 08:25:04;;;;;;;0.47;0.32;;;12.30;99.90;;;;;;5012290;28;20029;-58
2022/04/07 08:27:29;;;;;;;0.30;0.25;;;12.40;99.90;;;;;;5012306;28;20025;-58
2022/04/07 08:29:55;;;;;;;0.40;0.28;;;12.30;99.90;;;;;;5013622;28;20413;-56
2022/04/07 08:32:20;;;;;;;0.93;0.20;;;12.20;99.90;;;;;;5012440;28;20029;-57
2022/04/07 08:34:46;;;;;;;0.20;0.20;;;12.20;99.90;;;;;;5012136;28;20030;-53
2022/04/07 08:37:12;;;;;;;0.20;0.20;;;12.10;99.90;;;;;;5013506;28;20053;-49
2022/04/07 08:39:38;;;;;;;0.47;0.22;;;12.10;99.90;;;;;;5013468;28;20069;-55
2022/04/07 08:42:05;;;;;;;0.20;0.20;;;12.30;99.90;;;;;;5013367;28;20026;-51
2022/04/07 08:44:31;;;;;;;0.17;0.17;;;12.30;99.90;;;;;;5012069;28;20033;-52
2022/04/07 08:46:58;;;;;;;0.50;0.17;;;12.40;99.90;;;;;;5012029;28;20029;-54
2022/04/07 08:49:27;;;;;;;0.22;0.15;;;12.40;99.90;;;;;;5012066;28;20133;-54
2022/04/07 08:51:53;;;;;;;0.15;0.15;;;12.40;99.90;;;;;;5011916;28;20100;-55
2022/04/07 08:54:19;;;;;;;0.47;0.22;;;12.50;99.90;;;;;;5013061;28;20053;-52
2022/04/07 08:56:46;;;;;;;0.20;0.20;;;12.50;99.90;;;;;;5017083;28;20416;-56
2022/04/07 08:59:12;;;;;;;0.08;0.08;;;12.50;99.90;;;;;;5015809;28;20025;-55
2022/04/07 09:01:38;;;;;;;0.40;0.22;;;12.60;99.90;;;;;;5015741;28;20045;-52
2022/04/07 09:04:04;;;;;;;0.52;0.20;;;12.70;99.90;;;;;;5016035;28;20034;-54
2022/04/07 09:06:33;;;;;;;0.73;0.20;;;12.90;99.90;;;;;;5015528;28;20033;-54
2022/04/07 09:09:14;;;;;;;0.45;0.13;;;13.10;99.90;;;;;;5016153;28;20117;-52
2022/04/07 09:11:40;;;;;;;0.40;0.20;;;13.30;99.90;;;;;;5016813;28;20026;-54
2022/04/07 09:14:07;;;;;;;0.35;0.30;;;13.40;99.90;;;;;;5016657;28;20030;-54
2022/04/07 09:16:37;;;;;;;1.45;0.10;;;13.50;99.90;;;;;;5015707;28;20026;-54
2022/04/07 09:19:03;;;;;;;0.20;0.20;;;13.50;99.90;;;;;;5016062;28;20018;-52
2022/04/07 09:21:31;;;;;;;0.10;0.10;;;13.50;99.90;;;;;;5011850;28;20385;-56
2022/04/07 09:24:00;;;;;;;0.35;0.20;;;13.60;99.90;;;;;;4997890;28;20023;-54
2022/04/07 09:26:28;;;;;;;0.10;0.10;;;13.60;99.90;;;;;;5007330;28;20109;-57
2022/04/07 09:28:57;;;;;;;0.10;0.10;;;13.60;99.90;;;;;;5016675;28;20032;-56
2022/04/07 09:31:23;;;;;;;5.32;0.17;;;13.60;99.90;;;;;;5016931;28;20029;-57
2022/04/07 09:33:57;;;;;;;0.10;0.10;;;13.70;99.90;;;;;;5016518;28;20022;-52
2022/04/07 09:36:23;;;;;;;4.13;0.22;;;13.70;99.90;;;;;;5016581;28;20105;-55
2022/04/07 09:38:54;;;;;;;0.30;0.10;;;13.70;99.90;;;;;;5016924;28;20032;-55
2022/04/07 09:42:00;;;;;;;0.17;0.10;;;13.80;99.90;;;;;;5016424;28;20436;-56
2022/04/07 09:44:26;;;;;;;0.47;0.10;;;14.00;99.90;;;;;;5016559;28;20096;-55
2022/04/07 09:46:52;;;;;;;0.10;0.10;;;14.00;99.90;;;;;;5015988;28;20057;-56
2022/04/07 09:49:18;;;;;;;0.17;0.10;;;13.90;99.90;;;;;;5015023;28;20026;-54
2022/04/07 09:51:46;;;;;;;0.00;0.00;;;14.00;99.90;;;;;;5014965;28;20025;-56
2022/04/07 09:54:13;;;;;;;0.10;0.10;;;14.30;99.90;;;;;;5016129;28;20061;-54
2022/04/07 09:56:39;;;;;;;0.65;0.25;;;14.50;99.90;;;;;;5016128;28;20030;-54
2022/04/07 09:59:06;;;;;;;1.90;0.30;;;14.50;99.90;;;;;;5015108;28;20030;-59
2022/04/07 10:01:39;;;;;;;0.13;0.13;;;14.70;99.90;;;;;;5014614;28;20049;-57
2022/04/07 10:04:08;;;;;;;1.27;0.30;;;14.80;99.90;;;;;;5015215;28;20038;-57
2022/04/07 10:06:42;;;;;;;0.50;0.20;;;14.90;99.90;;;;;;5013610;28;20041;-52
2022/04/07 10:09:14;;;;;;;2.38;0.10;;;15.20;99.90;;;;;;5016087;28;20030;-58
2022/04/07 10:12:26;;;;;;;4.95;0.10;;;15.40;99.90;;;;;;5015833;28;20026;-56
2022/04/07 10:14:57;;;;;;;0.45;0.13;;;15.40;99.90;;;;;;5015526;28;20034;-57
2022/04/07 10:17:23;;;;;;;0.28;0.10;;;15.40;99.90;;;;;;5014452;28;20026;-60
2022/04/07 10:19:58;;;;;;;0.25;0.13;;;15.30;99.90;;;;;;5014460;28;20539;-62
2022/04/07 10:22:32;;;;;;;0.90;0.20;;;15.10;99.90;;;;;;5014674;28;20022;-61
2022/04/07 10:25:03;;;;;;;0.00;0.00;;;15.00;99.90;;;;;;5015907;28;20034;-61
2022/04/07 10:27:30;;;;;;;0.13;0.13;;;14.80;99.90;;;;;;5015180;28;20080;-61
2022/04/07 10:30:16;;;;;;;0.10;0.10;;;14.70;99.90;;;;;;5015057;28;20053;-61
2022/04/07 10:32:43;;;;;;;3.63;0.28;;;14.60;99.90;;;;;;5015397;28;20034;-60
2022/04/07 10:35:11;;;;;;;0.63;0.20;;;14.60;99.90;;;;;;5015070;28;20048;-61
2022/04/07 10:37:47;;;;;;;2.30;0.20;;;14.60;99.90;;;;;;5015371;28;20026;-61
2022/04/07 10:41:07;;;;;;;0.10;0.10;;;14.70;99.90;;;;;;5013978;28;20508;-61
2022/04/07 10:43:38;;;;;;;1.15;0.15;;;14.70;99.90;;;;;;5014037;28;20108;-60
2022/04/07 10:46:06;;;;;;;0.20;0.10;;;14.70;99.90;;;;;;5015553;28;20393;-61
2022/04/07 10:49:08;;;;;;;0.60;0.32;;;14.70;99.90;;;;;;5015236;28;20017;-61
2022/04/07 10:51:47;;;;;;;0.10;0.10;;;14.60;99.90;;;;;;5008822;28;20034;-59
2022/04/07 10:54:14;;;;;;;0.10;0.10;;;14.50;99.90;;;;;;5015068;28;20030;-59
2022/04/07 10:56:46;;;;;;;0.00;0.00;;;14.50;99.90;;;;;;5014999;28;20389;-61
2022/04/07 10:59:27;;;;;;;0.10;0.10;;;14.50;99.90;;;;;;5015225;28;20028;-58
2022/04/07 11:02:09;;;;;;;0.20;0.13;;;14.50;99.90;;;;;;5013355;28;20064;-61
2022/04/07 11:04:36;;;;;;;;;;;14.50;99.90;;;;;;5013897;28;20049;-60
2022/04/07 11:07:05;;;;;;;0.40;0.10;;;14.50;99.90;;;;;;5013499;28;20384;-60
2022/04/07 11:09:57;;;;;;;0.10;0.10;;;14.60;99.90;;;;;;5013587;28;20026;-60
2022/04/07 11:12:33;;;;;;;0.10;0.10;;;14.80;99.90;;;;;;5014789;28;20025;-61
2022/04/07 11:15:02;;;;;;;0.15;0.10;;;14.90;99.90;;;;;;5014839;28;20058;-60
2022/04/07 11:17:36;;;;;;;0.10;0.10;;;14.80;99.90;;;;;;5014716;28;20033;-62
2022/04/07 11:20:22;;;;;;;0.10;0.10;;;14.60;99.90;;;;;;5013189;28;20042;-61
2022/04/07 11:22:57;;;;;;;0.10;0.10;;;14.60;99.90;;;;;;5014558;28;20072;-61
2022/04/07 11:25:28;;;;;;;0.10;0.10;;;14.60;99.90;;;;;;5014221;28;20165;-61
2022/04/07 11:28:03;;;;;;;;;;;14.70;99.90;;;;;;5014868;28;20029;-60
2022/04/07 11:30:39;;;;;;;0.40;0.10;;;14.60;99.90;;;;;;5013708;28;20351;-61
2022/04/07 11:33:20;;;;;;;0.20;0.10;;;14.60;99.90;;;;;;5014001;28;20034;-62
2022/04/07 11:36:02;;;;;;;0.20;0.10;;;14.70;99.90;;;;;;5014252;28;20022;-62
2022/04/07 11:38:42;;;;;;;0.15;0.03;;;14.70;99.90;;;;;;5013568;28;20026;-61
2022/04/07 11:41:13;;;;;;;3.40;0.15;;;14.80;99.90;;;;;;5012868;28;20480;-61
2022/04/07 11:43:40;;;;;;;0.15;0.15;;;14.90;99.90;;;;;;4993197;28;20022;-60
2022/04/07 11:46:07;;;;;;;0.00;0.00;;;15.10;99.90;;;;;;4994922;28;20089;-62
2022/04/07 11:48:34;;;;;;;1.40;0.10;;;15.20;99.90;;;;;;4994692;28;20026;-61
2022/04/07 11:51:18;;;;;;;0.22;0.20;;;15.30;99.90;;;;;;4993468;28;20030;-60
2022/04/07 11:53:52;;;;;;;0.55;0.00;;;15.30;99.90;;;;;;4993662;28;20038;-61
2022/04/07 11:56:31;;;;;;;0.30;0.15;;;15.20;99.90;;;;;;4993017;28;20036;-61
2022/04/07 11:59:07;;;;;;;0.30;0.20;;;15.20;99.90;;;;;;4994657;28;20031;-61
2022/04/07 12:01:35;;;;;;;0.50;0.10;;;15.20;99.90;;;;;;4993169;28;20030;-59
2022/04/07 12:04:03;;;;;;;0.57;0.10;;;15.20;99.90;;;;;;4992852;28;20507;-60
2022/04/07 12:06:33;;;;;;;0.00;0.00;;;15.20;99.90;;;;;;4992897;28;20038;-61
2022/04/07 12:09:01;;;;;;;0.55;0.10;;;15.20;99.90;;;;;;4993544;28;20026;-61
2022/04/07 12:11:30;;;;;;;0.25;0.15;;;15.30;99.90;;;;;;4994164;28;20026;-61
2022/04/07 12:13:56;;;;;;;1.85;0.17;;;15.30;99.90;;;;;;4992962;28;20022;-61
2022/04/07 12:16:23;;;;;;;1.10;0.13;;;15.10;99.90;;;;;;4993993;28;20101;-61
2022/04/07 12:19:05;;;;;;;1.55;0.65;;;15.00;99.90;;;;;;5000248;28;20014;-61
2022/04/07 12:21:53;;;;;;;0.60;0.40;;;14.80;99.90;;;;;;5012450;28;20045;-61
2022/04/07 12:24:19;;;;;;;1.23;0.30;;;14.60;99.90;;;;;;5013688;28;20026;-61
2022/04/07 12:26:52;;;;;;;0.75;0.20;;;14.40;99.90;;;;;;5012219;28;20067;-60
2022/04/07 12:29:24;;;;;;;1.35;0.40;;;14.20;99.90;;;;;;5012248;28;20026;-60
2022/04/07 12:32:06;;;;;;;1.05;0.43;;;14.00;99.90;;;;;;5012182;28;20026;-60
2022/04/07 12:34:33;;;;;;;2.50;0.45;;;13.90;99.90;;;;;;5013434;28;20022;-59
2022/04/07 12:37:00;;;;;;;2.65;1.05;;;13.80;99.90;;;;;;5013463;28;20022;-60
2022/04/07 12:39:31;;;;;;;2.00;0.70;;;13.80;99.90;;;;;;5012322;28;20072;-62
2022/04/07 12:42:04;;;;;;;5.00;0.40;;;13.80;99.90;;;;;;5013502;28;20018;-59
2022/04/07 12:44:30;;;;;;;1.10;0.60;;;13.50;99.90;;;;;;5012239;28;20034;-61
2022/04/07 12:46:57;;;;;;;4.00;0.98;;;13.20;99.90;;;;;;5013435;28;20026;-61
2022/04/07 12:49:32;;;;;;;0.82;0.73;;;13.00;99.90;;;;;;5012272;28;20088;-61
2022/04/07 12:52:11;;;;;;;5.35;1.20;;;12.90;99.90;;;;;;5012588;28;20033;-56
2022/04/07 12:54:37;;;;;;;0.95;0.50;;;12.70;99.90;;;;;;5012061;28;20068;-56